Time;durP1;ratioP1;P1;durP2;ratioP2;P2;SDS_P1;SDS_P2;PMS_P1;PMS_P2;Temp;Humidity;BMP_temperature;BMP_pressure;BME280_temperature;BME280_humidity;BME280_pressure;Samples;Min_cycle;Max_cycle;Signal;HPM_P1;HPM_P2
2023/07/02 00:02:22;;;;;;;14.68;7.97;;;18.50;99.90;;;;;;4981277;28;20043;-72
2023/07/02 00:04:47;;;;;;;10.50;7.65;;;18.50;99.90;;;;;;4981222;28;20030;-72
2023/07/02 00:07:14;;;;;;;13.27;7.22;;;18.50;99.90;;;;;;4980770;28;20035;-71
2023/07/02 00:09:40;;;;;;;13.82;8.70;;;18.50;99.90;;;;;;4980961;28;20019;-72
2023/07/02 00:12:06;;;;;;;13.05;7.85;;;18.50;99.90;;;;;;4981057;28;20054;-73
2023/07/02 00:14:32;;;;;;;20.48;8.85;;;18.50;99.90;;;;;;4980851;28;20077;-73
2023/07/02 00:16:58;;;;;;;13.07;8.25;;;18.40;99.90;;;;;;4980853;28;20031;-73
2023/07/02 00:19:23;;;;;;;13.95;8.45;;;18.50;99.90;;;;;;4980843;28;20022;-72
2023/07/02 00:21:49;;;;;;;15.30;8.80;;;18.50;99.90;;;;;;4979430;28;20053;-73
2023/07/02 00:24:15;;;;;;;16.17;8.63;;;18.40;99.90;;;;;;4979843;28;20031;-73
2023/07/02 00:26:42;;;;;;;13.88;7.35;;;18.50;99.90;;;;;;4979966;28;20066;-72
2023/07/02 00:29:09;;;;;;;13.98;8.23;;;18.40;99.90;;;;;;4980293;28;20035;-71
2023/07/02 00:31:35;;;;;;;14.88;9.43;;;18.50;99.90;;;;;;4979339;28;20500;-72
2023/07/02 00:34:02;;;;;;;16.45;9.18;;;18.40;99.90;;;;;;4980100;28;20046;-72
2023/07/02 00:36:31;;;;;;;17.58;9.25;;;18.40;99.90;;;;;;4978730;28;20035;-71
2023/07/02 00:38:57;;;;;;;11.93;8.10;;;18.50;99.90;;;;;;4980346;28;20019;-71
2023/07/02 00:41:23;;;;;;;17.10;9.63;;;18.40;99.90;;;;;;4980259;28;20154;-70
2023/07/02 00:43:49;;;;;;;12.13;8.15;;;18.50;99.90;;;;;;4980258;28;20102;-72
2023/07/02 00:46:19;;;;;;;14.00;9.32;;;18.40;99.90;;;;;;5011236;28;20058;-71
2023/07/02 00:48:50;;;;;;;14.80;9.60;;;18.40;99.90;;;;;;4979309;28;20019;-74
2023/07/02 00:51:26;;;;;;;;;;;18.40;99.90;;;;;;4980692;28;20458;-73
2023/07/02 00:53:54;;;;;;;12.30;8.52;;;18.40;99.90;;;;;;4972449;28;19906;-72
2023/07/02 00:56:21;;;;;;;16.95;9.65;;;18.40;99.90;;;;;;4978734;28;20026;-72
2023/07/02 00:58:48;;;;;;;16.92;9.38;;;18.40;99.90;;;;;;4973613;28;20057;-71
2023/07/02 01:01:15;;;;;;;16.27;10.45;;;18.40;99.90;;;;;;4977201;28;20023;-71
2023/07/02 01:04:02;;;;;;;17.38;10.77;;;18.50;99.90;;;;;;4979763;28;20471;-72
2023/07/02 01:06:31;;;;;;;16.33;9.93;;;18.50;99.90;;;;;;4979256;28;20057;-71
2023/07/02 01:09:05;;;;;;;16.93;9.63;;;18.50;99.90;;;;;;4978962;28;20034;-72
2023/07/02 01:11:50;;;;;;;17.50;10.70;;;18.50;99.90;;;;;;4972894;28;20023;-73
2023/07/02 01:14:26;;;;;;;18.58;9.50;;;18.50;99.90;;;;;;4979662;28;20015;-72
2023/07/02 01:16:54;;;;;;;16.55;8.57;;;18.50;99.90;;;;;;4978487;28;20569;-72
2023/07/02 01:19:52;;;;;;;17.00;9.77;;;18.50;99.90;;;;;;4979513;28;20019;-73
2023/07/02 01:22:27;;;;;;;13.02;8.68;;;18.50;99.90;;;;;;4979489;28;20054;-72
2023/07/02 01:24:54;;;;;;;15.35;9.77;;;18.50;99.90;;;;;;4978335;28;20039;-72
2023/07/02 01:27:21;;;;;;;12.80;8.75;;;18.50;99.90;;;;;;4978178;28;20113;-72
2023/07/02 01:29:50;;;;;;;12.90;8.18;;;18.50;99.90;;;;;;4979229;28;20050;-72
2023/07/02 01:32:16;;;;;;;13.98;8.25;;;18.50;99.90;;;;;;4979028;28;20034;-73
2023/07/02 01:34:48;;;;;;;15.05;7.78;;;18.50;99.90;;;;;;4977821;28;20491;-71
2023/07/02 01:37:18;;;;;;;14.85;8.65;;;18.50;99.90;;;;;;4979067;28;20027;-72
2023/07/02 01:39:44;;;;;;;17.85;9.10;;;18.50;99.90;;;;;;4978743;28;20049;-72
2023/07/02 01:42:11;;;;;;;16.02;7.68;;;18.50;99.90;;;;;;4979348;28;20098;-72
2023/07/02 01:44:37;;;;;;;12.05;8.05;;;18.50;99.90;;;;;;4978348;28;20069;-72
2023/07/02 01:47:04;;;;;;;14.93;7.80;;;18.50;99.90;;;;;;4978437;28;20058;-72
2023/07/02 01:49:30;;;;;;;13.18;8.43;;;18.50;99.90;;;;;;4979053;28;20034;-72
2023/07/02 01:51:56;;;;;;;16.90;7.82;;;18.50;99.90;;;;;;4977689;28;20046;-72
2023/07/02 01:54:26;;;;;;;15.13;8.05;;;18.50;99.90;;;;;;4977514;28;20081;-72
2023/07/02 01:56:53;;;;;;;15.20;9.13;;;18.40;99.90;;;;;;4977972;28;20050;-72
2023/07/02 01:59:18;;;;;;;19.20;9.43;;;18.40;99.90;;;;;;4972769;28;20101;-72
2023/07/02 02:01:44;;;;;;;18.05;9.20;;;18.40;99.90;;;;;;4977985;28;20023;-72
2023/07/02 02:04:10;;;;;;;11.15;8.13;;;18.40;99.90;;;;;;4978647;28;20403;-73
2023/07/02 02:06:37;;;;;;;13.82;8.52;;;18.40;99.90;;;;;;4971849;28;20062;-72
2023/07/02 02:09:04;;;;;;;19.88;9.65;;;18.40;99.90;;;;;;4978357;28;20581;-73
2023/07/02 02:11:30;;;;;;;13.77;8.75;;;18.30;99.90;;;;;;4978557;28;20023;-72
2023/07/02 02:13:57;;;;;;;16.80;9.55;;;18.30;99.90;;;;;;4976913;28;20106;-72
2023/07/02 02:16:23;;;;;;;14.70;9.35;;;18.30;99.90;;;;;;4978271;28;20019;-72
2023/07/02 02:18:52;;;;;;;13.82;8.95;;;18.30;99.90;;;;;;4978682;28;20387;-73
2023/07/02 02:21:18;;;;;;;17.13;8.90;;;18.30;99.90;;;;;;4978477;28;20039;-72
2023/07/02 02:23:44;;;;;;;16.35;9.48;;;18.30;99.90;;;;;;4977043;28;20034;-73
2023/07/02 02:26:10;;;;;;;19.98;9.02;;;18.20;99.90;;;;;;4978671;28;20022;-72
2023/07/02 02:28:36;;;;;;;14.25;9.48;;;18.30;99.90;;;;;;4978158;28;20027;-73
2023/07/02 02:31:02;;;;;;;16.65;9.27;;;18.30;99.90;;;;;;4978255;28;20023;-71
2023/07/02 02:33:28;;;;;;;15.15;8.15;;;18.30;99.90;;;;;;4975093;28;20026;-71
2023/07/02 02:35:54;;;;;;;14.63;9.30;;;18.30;99.90;;;;;;4978598;28;20456;-70
2023/07/02 02:38:19;;;;;;;15.52;9.35;;;18.30;99.90;;;;;;4976978;28;20054;-70
2023/07/02 02:40:45;;;;;;;18.27;10.25;;;18.20;99.90;;;;;;4978023;28;20037;-70
2023/07/02 02:43:11;;;;;;;16.65;9.90;;;18.20;99.90;;;;;;4977589;28;20039;-70
2023/07/02 02:45:36;;;;;;;15.50;9.90;;;18.20;99.90;;;;;;4978382;28;20035;-70
2023/07/02 02:48:02;;;;;;;19.92;10.48;;;18.20;99.90;;;;;;4978252;28;20025;-71
2023/07/02 02:50:28;;;;;;;19.85;9.63;;;18.20;99.90;;;;;;4977180;28;20118;-70
2023/07/02 02:52:53;;;;;;;14.98;9.05;;;18.30;99.90;;;;;;4977858;28;20459;-71
2023/07/02 02:55:19;;;;;;;20.10;9.18;;;18.20;99.90;;;;;;4977247;28;20037;-70
2023/07/02 02:57:45;;;;;;;16.67;9.40;;;18.30;99.90;;;;;;4971569;28;20129;-70
2023/07/02 03:00:11;;;;;;;15.00;9.88;;;18.30;99.90;;;;;;4973863;28;20034;-71
2023/07/02 03:02:38;;;;;;;16.65;9.63;;;18.30;99.90;;;;;;4976754;28;20462;-71
2023/07/02 03:05:06;;;;;;;14.98;10.20;;;18.30;99.90;;;;;;4974723;28;20031;-71
2023/07/02 03:07:32;;;;;;;14.32;9.55;;;18.30;99.90;;;;;;4973370;28;20063;-71
2023/07/02 03:09:58;;;;;;;19.70;10.50;;;18.30;99.90;;;;;;4976971;28;20138;-68
2023/07/02 03:12:26;;;;;;;16.63;10.20;;;18.30;99.90;;;;;;4976086;28;20062;-70
2023/07/02 03:14:54;;;;;;;16.95;10.43;;;18.30;99.90;;;;;;4976634;28;20122;-70
2023/07/02 03:17:23;;;;;;;18.52;10.35;;;18.30;99.90;;;;;;4977676;28;20015;-69
2023/07/02 03:19:49;;;;;;;15.95;10.07;;;18.30;99.90;;;;;;4977765;28;20033;-71
2023/07/02 03:22:15;;;;;;;19.10;10.90;;;18.30;99.90;;;;;;4977585;28;20068;-70
2023/07/02 03:24:41;;;;;;;20.30;11.15;;;18.30;99.90;;;;;;5008948;28;20046;-70
2023/07/02 03:27:07;;;;;;;20.63;11.45;;;18.30;99.90;;;;;;4978235;28;20085;-71
2023/07/02 03:29:34;;;;;;;20.58;10.73;;;18.30;99.90;;;;;;4982054;28;20122;-71
2023/07/02 03:32:00;;;;;;;19.15;9.52;;;18.30;99.90;;;;;;4981859;28;20098;-70
2023/07/02 03:34:26;;;;;;;22.50;10.25;;;18.30;99.90;;;;;;4978290;28;20047;-72
2023/07/02 03:36:51;;;;;;;26.58;11.90;;;18.30;99.90;;;;;;4981399;28;20049;-71
2023/07/02 03:39:17;;;;;;;19.10;10.88;;;18.30;99.90;;;;;;4980401;28;20586;-72
2023/07/02 03:41:43;;;;;;;16.92;10.48;;;18.30;99.90;;;;;;4981818;28;20053;-71
2023/07/02 03:44:09;;;;;;;20.08;11.13;;;18.20;99.90;;;;;;4981421;28;20440;-71
2023/07/02 03:46:35;;;;;;;18.88;11.10;;;18.20;99.90;;;;;;4979535;28;20031;-72
2023/07/02 03:49:04;;;;;;;15.20;10.10;;;18.20;99.90;;;;;;4981444;28;20033;-72
2023/07/02 03:51:31;;;;;;;16.13;10.73;;;18.20;99.90;;;;;;4981343;28;20027;-72
2023/07/02 03:53:58;;;;;;;22.52;10.88;;;18.20;99.90;;;;;;4981199;28;20026;-72
2023/07/02 03:56:24;;;;;;;18.48;11.25;;;18.20;99.90;;;;;;4981356;28;20031;-72
2023/07/02 03:58:50;;;;;;;19.77;10.43;;;18.20;99.90;;;;;;4969069;28;20479;-72
2023/07/02 04:01:16;;;;;;;19.08;11.00;;;18.10;99.90;;;;;;4981543;28;20027;-71
2023/07/02 04:03:52;;;;;;;18.88;10.48;;;18.20;99.90;;;;;;4981008;28;20023;-72
2023/07/02 04:06:18;;;;;;;17.88;11.23;;;18.10;99.90;;;;;;4981419;28;20022;-72
2023/07/02 04:08:44;;;;;;;21.55;11.05;;;18.20;99.90;;;;;;4980767;28;20111;-71
2023/07/02 04:11:11;;;;;;;14.73;10.85;;;18.10;99.90;;;;;;4981186;28;20037;-71
2023/07/02 04:13:37;;;;;;;18.83;10.70;;;18.10;99.90;;;;;;4980823;28;20023;-72
2023/07/02 04:16:03;;;;;;;20.48;9.85;;;18.10;99.90;;;;;;4981076;28;20042;-71
2023/07/02 04:18:29;;;;;;;15.55;9.93;;;18.10;99.90;;;;;;4980916;28;20022;-71
2023/07/02 04:20:55;;;;;;;19.77;9.63;;;18.10;99.90;;;;;;4979829;28;20061;-71
2023/07/02 04:23:20;;;;;;;14.80;9.43;;;18.10;99.90;;;;;;4979530;28;20054;-71
2023/07/02 04:25:46;;;;;;;17.98;9.82;;;18.10;99.90;;;;;;4979483;28;20042;-70
2023/07/02 04:28:12;;;;;;;20.77;9.57;;;18.10;99.90;;;;;;4979398;28;20023;-72
2023/07/02 04:30:38;;;;;;;15.77;9.80;;;18.10;99.90;;;;;;4978246;28;20042;-71
2023/07/02 04:33:05;;;;;;;13.20;7.63;;;18.20;99.90;;;;;;4979134;28;20054;-71
2023/07/02 04:35:31;;;;;;;17.80;9.18;;;18.10;99.90;;;;;;4976985;28;20487;-71
2023/07/02 04:37:57;;;;;;;16.60;9.20;;;18.10;99.90;;;;;;4978325;28;20118;-72
2023/07/02 04:40:23;;;;;;;14.90;9.55;;;18.00;99.90;;;;;;4977727;28;20058;-71
2023/07/02 04:42:48;;;;;;;15.57;9.05;;;18.00;99.90;;;;;;4977894;28;20062;-71
2023/07/02 04:45:15;;;;;;;15.48;9.57;;;18.00;99.90;;;;;;4978183;28;20439;-71
2023/07/02 04:47:45;;;;;;;13.00;8.43;;;18.00;99.90;;;;;;4978221;28;20031;-71
2023/07/02 04:50:11;;;;;;;13.60;7.43;;;17.90;99.90;;;;;;4977887;28;20053;-71
2023/07/02 04:52:38;;;;;;;16.20;8.90;;;17.90;99.90;;;;;;4977801;28;20487;-71
2023/07/02 04:55:04;;;;;;;14.30;8.68;;;17.80;99.90;;;;;;5009374;28;20035;-71
2023/07/02 04:57:30;;;;;;;13.90;9.18;;;17.80;99.90;;;;;;4975017;28;20019;-70
2023/07/02 04:59:56;;;;;;;12.75;8.25;;;17.80;99.90;;;;;;4974754;28;20034;-71
2023/07/02 05:02:21;;;;;;;15.00;8.23;;;17.70;99.90;;;;;;4978747;28;20027;-71
2023/07/02 05:04:47;;;;;;;14.93;8.52;;;17.70;99.90;;;;;;4977328;28;20242;-71
2023/07/02 05:07:13;;;;;;;12.82;8.35;;;17.70;99.90;;;;;;4974185;28;20023;-71
2023/07/02 05:09:38;;;;;;;16.95;9.60;;;17.70;99.90;;;;;;4977724;28;20038;-71
2023/07/02 05:12:04;;;;;;;15.73;7.35;;;17.70;99.90;;;;;;4978022;28;20015;-71
2023/07/02 05:14:30;;;;;;;13.13;7.65;;;17.80;99.90;;;;;;4978171;28;20027;-72
2023/07/02 05:16:55;;;;;;;13.18;7.22;;;17.80;99.90;;;;;;4978806;28;20027;-70
2023/07/02 05:19:21;;;;;;;13.35;7.47;;;17.80;99.90;;;;;;4978707;28;20038;-71
2023/07/02 05:21:47;;;;;;;10.43;7.82;;;17.80;99.90;;;;;;4937738;28;1177249;-70
2023/07/02 05:24:12;;;;;;;13.95;7.43;;;17.80;99.90;;;;;;4979788;28;20118;-71
2023/07/02 05:26:38;;;;;;;12.30;7.50;;;17.90;99.90;;;;;;5010674;28;20035;-71
2023/07/02 05:29:05;;;;;;;12.73;6.65;;;17.90;99.90;;;;;;4979586;28;20027;-71
2023/07/02 05:31:31;;;;;;;11.43;7.38;;;17.90;99.90;;;;;;4979720;28;20392;-71
2023/07/02 05:33:57;;;;;;;10.80;7.00;;;17.90;99.90;;;;;;4979613;28;20051;-71
2023/07/02 05:36:22;;;;;;;10.05;6.47;;;17.90;99.90;;;;;;4979546;28;20227;-72
2023/07/02 05:38:48;;;;;;;13.45;6.85;;;17.90;99.90;;;;;;4977896;28;20030;-71
2023/07/02 05:41:23;;;;;;;10.52;6.78;;;17.90;99.90;;;;;;4979490;28;20018;-71
2023/07/02 05:43:49;;;;;;;9.45;6.20;;;17.90;99.90;;;;;;4979295;28;20051;-71
2023/07/02 05:46:15;;;;;;;12.43;6.45;;;17.90;99.90;;;;;;4979301;28;20077;-71
2023/07/02 05:48:43;;;;;;;13.38;6.60;;;18.00;99.90;;;;;;4979212;28;20483;-71
2023/07/02 05:51:09;;;;;;;10.48;5.35;;;18.00;99.90;;;;;;4978225;28;20026;-71
2023/07/02 05:53:36;;;;;;;11.00;5.93;;;18.10;99.90;;;;;;4978913;28;20518;-71
2023/07/02 05:56:02;;;;;;;10.70;5.63;;;18.20;99.90;;;;;;4978583;28;20058;-71
2023/07/02 05:58:29;;;;;;;10.30;5.55;;;18.30;99.90;;;;;;4968636;28;20034;-70
2023/07/02 06:00:55;;;;;;;8.35;5.40;;;18.40;99.90;;;;;;4978144;28;20132;-70
2023/07/02 06:03:21;;;;;;;10.77;6.28;;;18.30;99.90;;;;;;4979067;28;20061;-70
2023/07/02 06:05:50;;;;;;;10.43;5.72;;;18.40;99.90;;;;;;4978293;28;20076;-70
2023/07/02 06:08:17;;;;;;;9.88;5.47;;;18.50;99.90;;;;;;4977592;28;20018;-70
2023/07/02 06:10:46;;;;;;;6.93;4.97;;;18.50;99.90;;;;;;4978231;28;20035;-70
2023/07/02 06:13:12;;;;;;;7.78;5.43;;;18.60;99.90;;;;;;4977518;28;20102;-70
2023/07/02 06:15:37;;;;;;;7.68;4.57;;;18.80;99.90;;;;;;4978099;28;20031;-70
2023/07/02 06:18:03;;;;;;;10.13;4.78;;;18.90;99.90;;;;;;4978541;28;20073;-70
2023/07/02 06:20:29;;;;;;;7.88;4.95;;;19.10;99.90;;;;;;4977535;28;20062;-70
2023/07/02 06:22:54;;;;;;;9.65;5.15;;;19.10;99.90;;;;;;4977341;28;20483;-70
2023/07/02 06:25:20;;;;;;;8.38;5.30;;;19.20;99.90;;;;;;4978409;28;20876;-71
2023/07/02 06:27:46;;;;;;;5.82;3.88;;;19.30;99.90;;;;;;4978384;28;20078;-70
2023/07/02 06:30:11;;;;;;;7.70;4.88;;;19.30;99.90;;;;;;4978635;28;20031;-70
2023/07/02 06:32:37;;;;;;;10.52;4.85;;;19.40;99.90;;;;;;4978454;28;20166;-71
2023/07/02 06:35:05;;;;;;;10.18;4.47;;;19.40;99.90;;;;;;4978369;28;20023;-71
2023/07/02 06:37:31;;;;;;;9.60;4.55;;;19.40;99.90;;;;;;4975755;28;20119;-70
2023/07/02 06:39:57;;;;;;;7.00;4.20;;;19.30;99.90;;;;;;4978259;28;20491;-70
2023/07/02 06:42:23;;;;;;;10.55;5.30;;;19.30;99.90;;;;;;5008133;28;20042;-70
2023/07/02 06:44:49;;;;;;;6.40;4.63;;;19.20;99.90;;;;;;4977045;28;20081;-72
2023/07/02 06:47:15;;;;;;;10.57;4.57;;;19.30;99.90;;;;;;4977677;28;20035;-72
2023/07/02 06:49:40;;;;;;;5.95;4.05;;;19.30;99.90;;;;;;4978004;28;20023;-71
2023/07/02 06:52:06;;;;;;;7.88;3.92;;;19.40;99.90;;;;;;4991824;28;20118;-71
2023/07/02 06:54:32;;;;;;;8.80;5.00;;;19.40;99.90;;;;;;5008119;28;20041;-71
2023/07/02 06:56:57;;;;;;;6.07;4.10;;;19.40;99.90;;;;;;4977846;28;20023;-71
2023/07/02 06:59:23;;;;;;;7.03;4.50;;;19.40;99.90;;;;;;4975842;28;20023;-71
2023/07/02 07:01:50;;;;;;;6.70;4.50;;;19.40;99.90;;;;;;4969146;28;20035;-72
2023/07/02 07:04:16;;;;;;;8.32;4.03;;;19.40;99.90;;;;;;4969054;28;20027;-71
2023/07/02 07:06:42;;;;;;;6.63;4.10;;;19.50;99.90;;;;;;5007634;28;20045;-71
2023/07/02 07:09:08;;;;;;;9.00;4.45;;;19.60;99.90;;;;;;4975744;28;20035;-72
2023/07/02 07:11:34;;;;;;;6.00;3.72;;;19.60;99.90;;;;;;4976596;28;20023;-70
2023/07/02 07:14:00;;;;;;;7.53;3.80;;;19.70;99.90;;;;;;5006826;28;20030;-72
2023/07/02 07:16:25;;;;;;;8.02;3.88;;;19.80;99.90;;;;;;4972807;28;20030;-71
2023/07/02 07:18:51;;;;;;;9.90;3.75;;;20.00;99.90;;;;;;4974082;28;20023;-72
2023/07/02 07:21:16;;;;;;;9.05;4.13;;;20.20;99.90;;;;;;4972980;28;20135;-72
2023/07/02 07:23:42;;;;;;;5.97;3.30;;;20.20;99.90;;;;;;4975219;28;20027;-72
2023/07/02 07:26:08;;;;;;;5.13;3.42;;;20.20;99.90;;;;;;4973905;28;20038;-72
2023/07/02 07:28:34;;;;;;;6.53;4.00;;;20.10;99.90;;;;;;4974496;28;20058;-72
2023/07/02 07:30:59;;;;;;;8.18;3.35;;;20.20;99.90;;;;;;4972557;28;20034;-72
2023/07/02 07:33:25;;;;;;;9.93;3.40;;;20.30;99.90;;;;;;4974953;28;20072;-72
2023/07/02 07:35:51;;;;;;;4.63;3.35;;;20.20;99.90;;;;;;4971842;28;20031;-72
2023/07/02 07:38:16;;;;;;;5.93;3.40;;;20.20;99.90;;;;;;4973588;28;20019;-73
2023/07/02 07:40:43;;;;;;;6.47;3.10;;;20.10;99.90;;;;;;4970961;28;20023;-71
2023/07/02 07:43:08;;;;;;;6.15;3.38;;;20.10;99.90;;;;;;4972885;28;20042;-72
2023/07/02 07:45:34;;;;;;;5.07;3.60;;;20.00;99.90;;;;;;4975148;28;20622;-72
2023/07/02 07:48:00;;;;;;;6.60;3.40;;;20.00;99.90;;;;;;4975697;28;20396;-71
2023/07/02 07:50:26;;;;;;;6.95;3.25;;;20.00;99.90;;;;;;4968033;28;20027;-73
2023/07/02 07:52:52;;;;;;;7.65;3.58;;;20.00;99.90;;;;;;4966932;28;20086;-72
2023/07/02 07:55:17;;;;;;;4.32;3.28;;;19.90;99.90;;;;;;4972952;28;20133;-72
2023/07/02 07:57:43;;;;;;;6.13;3.08;;;20.00;99.90;;;;;;4967588;28;20056;-72
2023/07/02 08:00:10;;;;;;;4.75;3.50;;;20.00;99.90;;;;;;4968722;28;20035;-74
2023/07/02 08:02:35;;;;;;;6.03;4.32;;;20.20;99.90;;;;;;4974875;28;20407;-72
2023/07/02 08:05:02;;;;;;;4.90;2.63;;;20.20;99.90;;;;;;4974839;28;20027;-70
2023/07/02 08:07:28;;;;;;;3.97;3.30;;;20.30;99.90;;;;;;4973965;28;20468;-70
2023/07/02 08:09:53;;;;;;;4.28;3.13;;;20.20;99.90;;;;;;4974176;28;20403;-70
2023/07/02 08:12:19;;;;;;;4.40;2.95;;;20.20;99.90;;;;;;4972560;28;20134;-70
2023/07/02 08:14:45;;;;;;;4.47;2.92;;;20.10;99.90;;;;;;4966454;28;20460;-70
2023/07/02 08:17:10;;;;;;;6.82;2.95;;;20.00;99.90;;;;;;5011742;28;20105;-70
2023/07/02 08:19:36;;;;;;;7.38;3.20;;;20.10;99.90;;;;;;4979616;28;20019;-71
2023/07/02 08:22:02;;;;;;;4.30;3.40;;;20.00;99.90;;;;;;4980528;28;20085;-70
2023/07/02 08:24:30;;;;;;;4.40;2.95;;;19.90;99.90;;;;;;4979754;28;20125;-70
2023/07/02 08:26:56;;;;;;;4.18;2.67;;;19.80;99.90;;;;;;4980631;28;20027;-69
2023/07/02 08:29:22;;;;;;;3.63;3.03;;;19.80;99.90;;;;;;4980832;28;20033;-70
2023/07/02 08:31:47;;;;;;;4.43;2.97;;;19.90;99.90;;;;;;4980818;28;20094;-70
2023/07/02 08:34:13;;;;;;;4.75;3.03;;;20.10;99.90;;;;;;4980715;28;20053;-70
2023/07/02 08:36:39;;;;;;;5.18;3.22;;;20.30;99.90;;;;;;4980349;28;20462;-70
2023/07/02 08:39:05;;;;;;;3.45;2.85;;;20.40;99.90;;;;;;5012109;28;20377;-70
2023/07/02 08:41:41;;;;;;;6.07;3.40;;;20.60;99.90;;;;;;4980562;28;20084;-69
2023/07/02 08:44:07;;;;;;;6.25;3.13;;;20.50;99.90;;;;;;4980557;28;20030;-70
2023/07/02 08:46:32;;;;;;;5.55;3.28;;;20.40;99.90;;;;;;4980138;28;20030;-70
2023/07/02 08:48:58;;;;;;;5.38;3.05;;;20.20;99.90;;;;;;4979130;28;20085;-70
2023/07/02 08:51:24;;;;;;;5.80;3.28;;;20.10;99.90;;;;;;4979803;28;20149;-70
2023/07/02 08:53:49;;;;;;;5.78;3.15;;;20.00;99.90;;;;;;4979652;28;20023;-70
2023/07/02 08:56:15;;;;;;;5.22;3.50;;;19.90;99.90;;;;;;4978564;28;20038;-70
2023/07/02 08:58:41;;;;;;;4.60;3.58;;;20.00;99.90;;;;;;4970641;28;20015;-70
2023/07/02 09:01:08;;;;;;;4.25;3.55;;;20.00;99.90;;;;;;4979805;28;20030;-71
2023/07/02 09:03:37;;;;;;;5.60;3.88;;;20.10;99.90;;;;;;4979637;28;20023;-69
2023/07/02 09:06:03;;;;;;;4.82;3.95;;;20.30;99.90;;;;;;4979286;28;20058;-70
2023/07/02 09:08:29;;;;;;;8.75;3.92;;;20.50;99.90;;;;;;4978566;28;20090;-76
2023/07/02 09:11:06;;;;;;;4.13;2.92;;;20.70;99.90;;;;;;4979952;28;20026;-72
2023/07/02 09:13:31;;;;;;;3.78;2.60;;;20.70;99.90;;;;;;4976160;28;20027;-77
2023/07/02 09:15:57;;;;;;;3.88;2.50;;;20.70;99.90;;;;;;4980050;28;20537;-74
2023/07/02 09:18:26;;;;;;;3.90;2.38;;;20.70;99.90;;;;;;5011217;28;20051;-73
2023/07/02 09:20:54;;;;;;;6.45;2.30;;;20.80;99.90;;;;;;4979716;28;20058;-74
2023/07/02 09:23:20;;;;;;;3.33;2.28;;;20.80;99.90;;;;;;4979368;28;20023;-74
2023/07/02 09:25:46;;;;;;;2.55;1.90;;;20.70;99.90;;;;;;4978622;28;20031;-75
2023/07/02 09:28:19;;;;;;;3.95;1.80;;;20.60;99.90;;;;;;4979749;28;20030;-73
2023/07/02 09:30:50;;;;;;;2.83;1.80;;;20.50;99.90;;;;;;4979504;28;21747;-74
2023/07/02 09:33:16;;;;;;;3.78;1.50;;;20.50;99.90;;;;;;4979650;28;20388;-74
2023/07/02 09:35:42;;;;;;;3.65;2.55;;;20.50;99.90;;;;;;4979671;28;20022;-74
2023/07/02 09:38:08;;;;;;;1.85;1.63;;;20.60;99.90;;;;;;5008323;28;20325;-73
2023/07/02 09:40:38;;;;;;;1.95;1.60;;;20.60;99.90;;;;;;4979611;28;20035;-74
2023/07/02 09:43:04;;;;;;;1.33;1.10;;;20.40;99.90;;;;;;4979478;28;20034;-73
2023/07/02 09:45:30;;;;;;;1.25;1.00;;;20.10;99.90;;;;;;4979281;28;20058;-75
2023/07/02 09:47:57;;;;;;;1.70;1.02;;;19.80;99.90;;;;;;4979436;28;20027;-74
2023/07/02 09:50:24;;;;;;;2.20;1.27;;;19.80;99.90;;;;;;4979339;28;20471;-75
2023/07/02 09:52:50;;;;;;;5.03;1.63;;;19.80;99.90;;;;;;4978868;28;20495;-75
2023/07/02 09:55:16;;;;;;;2.05;1.00;;;19.90;99.90;;;;;;4979271;28;20032;-74
2023/07/02 09:57:44;;;;;;;3.08;1.10;;;19.80;99.90;;;;;;4973399;28;20368;-73
2023/07/02 10:00:11;;;;;;;2.22;1.02;;;19.70;99.90;;;;;;4978531;28;20022;-74
2023/07/02 10:02:36;;;;;;;2.65;1.08;;;19.60;99.90;;;;;;4979008;28;20035;-74
2023/07/02 10:05:02;;;;;;;2.78;1.30;;;19.50;99.90;;;;;;4979008;28;20109;-74
2023/07/02 10:07:29;;;;;;;1.65;1.10;;;19.60;99.90;;;;;;4993679;28;20027;-76
2023/07/02 10:09:55;;;;;;;6.88;1.60;;;19.70;99.90;;;;;;4978760;28;20479;-71
2023/07/02 10:12:25;;;;;;;2.47;1.55;;;19.70;99.90;;;;;;4972354;28;20093;-72
2023/07/02 10:14:53;;;;;;;2.15;1.20;;;19.60;99.90;;;;;;4975679;28;20102;-71
2023/07/02 10:17:33;;;;;;;3.40;1.05;;;19.70;99.90;;;;;;5007451;28;20030;-71
2023/07/02 10:20:00;;;;;;;1.48;1.00;;;19.60;99.90;;;;;;4975863;28;20058;-72
2023/07/02 10:22:26;;;;;;;1.48;1.10;;;19.70;99.90;;;;;;4989918;28;20046;-72
2023/07/02 10:24:59;;;;;;;3.03;1.20;;;19.60;99.90;;;;;;4976543;28;20081;-72
2023/07/02 10:27:40;;;;;;;1.35;1.10;;;19.60;99.90;;;;;;4974141;28;20503;-70
2023/07/02 10:30:08;;;;;;;3.17;1.40;;;19.50;99.90;;;;;;4973998;28;20043;-71
2023/07/02 10:32:35;;;;;;;2.55;1.42;;;19.40;99.90;;;;;;4975791;28;20030;-72
2023/07/02 10:35:17;;;;;;;2.33;1.40;;;19.60;99.90;;;;;;4975979;28;20015;-73
2023/07/02 10:37:44;;;;;;;2.15;1.38;;;19.60;99.90;;;;;;4976230;28;20023;-71
2023/07/02 10:40:10;;;;;;;2.67;1.50;;;19.70;99.90;;;;;;4974725;28;20038;-70
2023/07/02 10:42:50;;;;;;;5.43;1.38;;;19.70;99.90;;;;;;4977710;28;20026;-70
2023/07/02 10:45:17;;;;;;;2.08;1.40;;;19.80;99.90;;;;;;4977533;28;20030;-70
2023/07/02 10:47:42;;;;;;;1.88;1.33;;;19.90;99.90;;;;;;4977242;28;20037;-71
2023/07/02 10:50:21;;;;;;;3.35;1.05;;;20.20;99.90;;;;;;4975559;28;20039;-71
2023/07/02 10:52:50;;;;;;;2.05;1.40;;;20.40;99.90;;;;;;4976119;28;20022;-70
2023/07/02 10:55:23;;;;;;;1.52;1.15;;;20.70;99.90;;;;;;4977010;28;20082;-69
2023/07/02 10:57:53;;;;;;;1.80;0.95;;;21.00;99.90;;;;;;4976199;28;20019;-70
2023/07/02 11:00:19;;;;;;;2.13;1.37;;;21.20;99.90;;;;;;4975763;28;20129;-69
2023/07/02 11:02:45;;;;;;;2.28;1.38;;;21.50;99.90;;;;;;4975416;28;20030;-69
2023/07/02 11:05:14;;;;;;;2.15;1.58;;;21.70;99.90;;;;;;4976459;28;20365;-69
2023/07/02 11:07:41;;;;;;;1.65;1.33;;;21.90;99.90;;;;;;4974271;28;20439;-70
2023/07/02 11:10:08;;;;;;;2.50;1.30;;;22.10;99.90;;;;;;4975295;28;20106;-69
2023/07/02 11:12:34;;;;;;;1.75;1.30;;;22.40;99.90;;;;;;4972991;28;20380;-70
2023/07/02 11:15:14;;;;;;;1.25;0.93;;;22.60;99.90;;;;;;4970386;28;20471;-70
2023/07/02 11:17:41;;;;;;;4.47;1.17;;;22.90;99.90;;;;;;4972371;28;20027;-69
2023/07/02 11:20:11;;;;;;;1.40;0.88;;;23.10;99.90;;;;;;4974340;28;20050;-73
2023/07/02 11:22:38;;;;;;;1.07;0.97;;;22.90;99.90;;;;;;4971971;28;20035;-70
2023/07/02 11:25:10;;;;;;;2.22;0.90;;;23.00;99.90;;;;;;4973777;28;20278;-69
2023/07/02 11:27:35;;;;;;;1.98;0.93;;;22.90;99.90;;;;;;4974509;28;20031;-70
2023/07/02 11:30:01;;;;;;;1.42;0.80;;;22.90;99.90;;;;;;4976771;28;20502;-70
2023/07/02 11:32:27;;;;;;;1.15;0.70;;;22.90;99.90;;;;;;4973020;28;20538;-70
2023/07/02 11:34:56;;;;;;;1.42;1.08;;;23.00;99.90;;;;;;4975418;28;20073;-70
2023/07/02 11:37:22;;;;;;;1.17;1.00;;;23.30;99.90;;;;;;4975546;28;20038;-69
2023/07/02 11:39:48;;;;;;;1.45;0.90;;;23.70;99.90;;;;;;4976297;28;20549;-69
2023/07/02 11:42:14;;;;;;;2.40;0.80;;;23.90;99.90;;;;;;4975525;28;20030;-70
2023/07/02 11:44:40;;;;;;;2.70;1.02;;;23.90;99.90;;;;;;4975175;28;20035;-70
2023/07/02 11:47:06;;;;;;;2.35;1.00;;;23.90;99.90;;;;;;4976762;28;20042;-70
2023/07/02 11:49:32;;;;;;;4.18;0.90;;;24.00;99.90;;;;;;4977809;28;20411;-70
2023/07/02 11:51:57;;;;;;;1.40;1.02;;;23.80;99.90;;;;;;4979781;28;20046;-72
2023/07/02 11:54:23;;;;;;;1.58;1.20;;;23.80;99.90;;;;;;4980102;28;20051;-72
2023/07/02 11:56:49;;;;;;;2.67;0.90;;;23.80;99.90;;;;;;4970552;28;20035;-70
2023/07/02 11:59:14;;;;;;;5.13;1.17;;;23.80;99.90;;;;;;4979076;28;20018;-70
2023/07/02 12:01:40;;;;;;;1.13;0.80;;;23.90;99.90;;;;;;4981357;28;20042;-69
2023/07/02 12:04:07;;;;;;;1.50;1.00;;;24.20;99.90;;;;;;4981180;28;20114;-70
2023/07/02 12:06:33;;;;;;;1.67;1.10;;;24.40;99.90;;;;;;4981091;28;20476;-70
2023/07/02 12:08:59;;;;;;;1.80;0.95;;;24.30;99.90;;;;;;4979029;28;20396;-70
2023/07/02 12:11:25;;;;;;;1.85;1.02;;;24.30;99.90;;;;;;4981314;28;20015;-70
2023/07/02 12:13:50;;;;;;;2.03;1.27;;;24.60;99.90;;;;;;4979704;28;20038;-70
2023/07/02 12:16:16;;;;;;;1.42;1.00;;;24.70;99.90;;;;;;4981113;28;20034;-70
2023/07/02 12:18:41;;;;;;;2.42;1.10;;;24.60;99.90;;;;;;4980763;28;20041;-70
2023/07/02 12:21:07;;;;;;;2.42;0.93;;;24.70;99.90;;;;;;4980918;28;20047;-70
2023/07/02 12:23:33;;;;;;;1.00;0.90;;;24.80;99.90;;;;;;4980487;28;20031;-69
2023/07/02 12:25:58;;;;;;;2.10;0.90;;;24.90;99.90;;;;;;4980201;28;20026;-70
2023/07/02 12:28:24;;;;;;;1.45;1.00;;;25.20;99.90;;;;;;4979273;28;20098;-70
2023/07/02 12:30:50;;;;;;;1.50;0.88;;;25.50;99.90;;;;;;4980793;28;20027;-70
2023/07/02 12:33:15;;;;;;;0.70;0.60;;;25.90;99.90;;;;;;4980472;28;20030;-70
2023/07/02 12:35:41;;;;;;;0.65;0.60;;;26.10;99.90;;;;;;4980460;28;20030;-70
2023/07/02 12:38:08;;;;;;;0.93;0.65;;;26.20;99.90;;;;;;4980150;28;20031;-69
2023/07/02 12:40:34;;;;;;;1.60;0.90;;;25.70;99.90;;;;;;4980444;28;20490;-70